Logo AVAMET
Benvolgut visitant, si us plau, ingressa Recuperar contrasenya

Montserrat Casadalt

Dades diàries. Acumulats / Últims 30 dies disponibles

Data Temperatura (°C) Humitat rel. (%) Pressió rel. (hPa) Vent (km/h) Precipitació
Mínima Mitjana Màxima Amplitud
tèrmica
Mínima Mitjana Màxima Mínima Mitjana Màxima Predom. Mitjana Ràfega
màxima
Total
(mm)
Índex-n
Mínima Mitjana Màxima Mínima Mitjana Màxima n
0 a 1
P0 max
mm 5'
Dades mensuals acumulades fins l'últim dia disponible
10/2019 9,9 16,2 18,9 20,4 19,2 26,5 34,6 24,7 19 63 96 1.003 1.014 1.021   6,7 54,7 5,2
Dades anuals acumulades fins l'últim dia disponible
2019 1,6 14,1 25,1 18,5 10,9 24,4 41,7 40,1 11 61 100 991 1.015 1.034   8,2 83,7 335,2
Últims 30 dies disponibles
21-10-2019 9,9     14,2     20,0 10,1 40 66 80 1.013 1.015 1.017 W 7,9 38,6 0,0
20-10-2019 12,8     16,4     19,2 6,4 53 67 89 1.003 1.007 1.013 W 8,2 54,7 4,4 0,42 0,60
19-10-2019 17,3     21,3     28,8 11,5 31 56 72 1.004 1.008 1.011 W 8,4 38,6 0,0
18-10-2019 16,6     21,4     28,1 11,5 39 53 64 1.011 1.013 1.016 W 12,1 41,8 0,0
17-10-2019 14,1     20,1     27,9 13,8 25 40 56 1.013 1.014 1.016 W 13,4 43,5 0,0
16-10-2019 12,7     18,5     26,2 13,5 21 36 49 1.014 1.017 1.019 W 13,5 37,0 0,0
15-10-2019 12,2     17,8     25,1 12,9 21 43 66 1.012 1.016 1.018 W 13,5 49,9 0,0
14-10-2019 18,5     20,4     23,8 5,3 42 82 96 1.009 1.012 1.015 NE 4,8 53,1 0,0
13-10-2019 18,5     21,4     26,6 8,1 56 84 96 1.014 1.015 1.016 SE 1,8 27,4 0,2
12-10-2019 18,9     20,8     24,7 5,8 63 84 94 1.015 1.017 1.018 ESE 1,8 22,5 0,0
11-10-2019 18,5     21,3     26,3 7,8 57 77 90 1.017 1.019 1.021 SSE 1,8 27,4 0,0
10-10-2019 18,0     19,7     21,8 3,8 62 79 92 1.018 1.019 1.021 ESE 2,1 22,5 0,0
09-10-2019 17,7     21,3     26,4 8,7 56 76 87 1.013 1.015 1.018 ESE 3,7 22,5 0,0
08-10-2019 16,7     21,3     27,5 10,8 44 65 83 1.014 1.016 1.019 SSE 3,1 30,6 0,0
07-10-2019 16,1     20,6     27,6 11,5 25 68 95 1.013 1.015 1.017 W 3,2 32,2 0,2
06-10-2019 16,1     20,7     27,2 11,1 49 77 93 1.014 1.015 1.017 N 5,5 32,2 0,2
05-10-2019 17,7     21,4     27,5 9,8 44 63 85 1.012 1.013 1.015 NW 3,9 30,6 0,0
04-10-2019 16,7     21,8     29,9 13,2 25 56 92 1.011 1.014 1.016 W 8,2 32,2 0,0
03-10-2019 15,8     20,2     27,9 12,1 26 52 80 1.013 1.014 1.016 N 6,4 30,6 0,0
02-10-2019 18,3     23,2     29,3 11,0 22 38 58 1.009 1.012 1.015 W 7,1 30,6 0,0
01-10-2019 17,9     25,4     34,6 16,7 19 54 95 1.006 1.009 1.014 W 10,5 38,6 0,2
30-09-2019 20,0     22,7     26,8 6,8 34 64 93 1.013 1.014 1.016 E 6,4 30,6 0,0
29-09-2019 17,6     23,6     31,2 13,6 40 71 95 1.012 1.015 1.018 W 5,6 30,6 0,4
28-09-2019 18,0     21,8     27,0 9,0 62 80 94 1.016 1.017 1.019 ESE 2,6 24,1 0,0
27-09-2019 18,3     23,2     31,1 12,8 41 75 96 1.013 1.015 1.017 W 6,4 32,2 0,4
26-09-2019 18,7     22,4     28,4 9,7 46 79 94 1.015 1.016 1.018 SE 5,3 30,6 0,0
25-09-2019 20,0     23,2     28,7 8,7 39 61 88 1.011 1.013 1.016 W 10,1 37,0 0,0
24-09-2019 18,3     24,8     33,3 15,0 22 44 80 1.011 1.014 1.017 W 11,3 41,8 0,0
23-09-2019 17,3     21,8     26,6 9,3 39 57 79 1.014 1.016 1.018 N 7,7 29,0 0,0
22-09-2019 18,8     24,6     31,1 12,3 38 62 96 1.009 1.011 1.014 W 10,6 37,0 0,2
Últims 13 mesos disponibles
09/2019 13,8 18,9 21,9 22,5 19,2 27,4 33,6 19,8 30 70 87 1.008 1.015 1.023 W 7,1 69,2 90,8
08/2019 16,9 21,1 25,1 25,6 26,3 31,6 41,7 24,8 34 65 79 1.008 1.013 1.018 ESE 7,4 51,5 10,6
07/2019 19,9 21,4 23,4 26,0 27,0 31,8 37,6 17,7 39 61 77 1.003 1.012 1.019 SE 6,8 54,7 9,4
06/2019 12,5 17,1 23,2 22,1 22,2 28,1 36,9 24,4 32 58 76 1.006 1.013 1.020 ESE 7,5 66,0 0,0
05/2019 8,2 13,4 18,4 17,9 18,0 23,5 31,8 23,6 45 63 87 1.003 1.013 1.022 N 7,2 61,2 14,0
04/2019 6,7 10,2 12,8 14,1 13,4 19,8 29,8 23,1 33 65 99 998 1.011 1.023 W 10,5 67,6 175,8
03/2019 6,4 9,6 13,7 14,1 10,9 20,5 29,1 22,7 31 52 91 1.008 1.021 1.028 N 8,0 66,0 28,2
02/2019 3,4 7,3 12,1 11,6 12,3 18,2 26,8 23,4 32 59 78 993 1.023 1.032 W 8,3 83,7 1,0
01/2019 1,6 6,3 10,4 10,4 12,0 16,4 21,4 19,8 35 52 71 1.000 1.017 1.029 W 11,9 80,5 0,2
12/2018 6,1 8,7 12,5 12,3 13,3 17,8 22,9 16,8 37 64 84 1.007 1.023 1.029 W 11,5 64,4 11,2
11/2018 6,2 10,3 14,4 13,2 12,3 17,3 23,9 17,7 46 73 99 1.000 1.014 1.022 W 10,8 70,8 182,4
10/2018 5,7 14,0 18,9 17,4 12,5 22,4 30,4 24,7 46 71 94 998 1.013 1.024 W 8,9 64,4 151,4
09/2018 15,9 19,5 22,1 22,9 22,1 27,6 31,3 15,4 51 76 89 1.010 1.017 1.027 ESE 7,1 41,8 108,0
Tots els anys disponibles
2018 1,1 13,5 25,3 17,4 7,4 22,8 38,0 36,9 37 70 99 998 1.016 1.029 W 10,2 86,9 734,0
2017 -0,7 13,5 25,3 17,6 6,6 23,1 38,0 38,7 9,1 85,3 336,2
2016 1,8 13,8 27,1 17,7 9,6 22,9 39,6 37,8 9,8 83,7 541,0
2015 0,7 13,6 21,1 17,6 21,0 22,9 41,8 41,1 6,2 83,7 468,4
2014 1,3 13,8 23,5 17,8 8,8 23,2 41,1 39,8 7,6 82,1 324,0
2013 1,2 12,9 16,8 16,8 18,7 22,2 36,1 34,9 8,4 78,9 337,8
2012 -2,3 13,0 18,1 17,1 21,4 22,5 37,2 39,5 7,2 82,1 431,2
2011 -1,1 13,5 22,8 17,1 6,6 22,2 39,0 40,1 8,4 83,7 426,0
2010 -1,8 12,4 26,2 16,3 3,7 21,4 42,0 43,8 9,2 109,4 559,4
2009 -2,2 13,2 23,7 17,1 4,6 22,5 41,7 43,9 9,7 99,8 807,4
2008 1,6 12,5 17,1 21,7 37,0 35,4 10,6 74,0 733,8
2007 2,1 13,0 17,4 21,7 37,6 35,5 42 67 88 1.027 1.027 1.027 2,3 37,0 698,8
2006 -3,2 13,4 17,8 22,2 35,6 38,8 48 70 97 3,1 45,0 531,7
2005 -4,9 12,1 16,6 21,1 36,5 41,4 357,2
Temperatura (°C)
Humitat relativa (%)
Velocitat del vent i ràfega màxima (km/h)
Direcció del vent (°)
Pressió (hPa)
Precipitació (mm)
Nota sobre les dades: s'avisa a l'usuari de la provisionalitat i no oficialitat d'aquestes dades
Logo AVAMET blanc
Web allotjada a Sollutia
Llicència de Creative CommonsLa web d'AVAMET i els seus continguts estan subjectes a una llicència de
Reconeixement - No Comercial - Compartir igual
Últimes estacions: Sueca - Centre (Inforatge), Xàbia - La Plana (Soci), Banyeres de Mariola - Molí Sol (Soci), Villena - Villa Ventín (Soci), Benissa - Convent (Soci), Xàbia Fontanella (Soci), Castielfabib (Soci) --- Properes estacions: Villena - Serra de Salines (Soci) - - -